Time;durP1;ratioP1;P1;durP2;ratioP2;P2;SDS_P1;SDS_P2;PMS_P1;PMS_P2;Temp;Humidity;BMP_temperature;BMP_pressure;BME280_temperature;BME280_humidity;BME280_pressure;Samples;Min_cycle;Max_cycle;Signal;HPM_P1;HPM_P2
2022/12/09 00:04:51;;;;;;;14.18;9.50;;;;;;;;;;10447586;28;20534;-61
2022/12/09 00:09:52;;;;;;;12.38;8.88;;;;;;;;;;10446693;28;20455;-64
2022/12/09 00:14:52;;;;;;;12.02;8.45;;;;;;;;;;10446269;28;20021;-60
2022/12/09 00:19:53;;;;;;;12.23;8.63;;;;;;;;;;10447340;28;20120;-62
2022/12/09 00:24:54;;;;;;;12.43;8.70;;;;;;;;;;10447094;28;20017;-61
2022/12/09 00:29:54;;;;;;;12.70;8.55;;;;;;;;;;10446644;28;20165;-61
2022/12/09 00:34:55;;;;;;;17.02;9.27;;;;;;;;;;10447857;28;20032;-65
2022/12/09 00:39:55;;;;;;;13.77;8.85;;;;;;;;;;10447741;28;20040;-61
2022/12/09 00:44:56;;;;;;;12.85;8.07;;;;;;;;;;10437794;28;20064;-59
2022/12/09 00:49:57;;;;;;;11.80;8.27;;;;;;;;;;10445249;28;20173;-61
2022/12/09 00:54:57;;;;;;;13.70;8.82;;;;;;;;;;10446843;28;20097;-61
2022/12/09 00:59:58;;;;;;;12.18;8.30;;;;;;;;;;10446391;28;20032;-60
2022/12/09 01:04:58;;;;;;;10.35;8.02;;;;;;;;;;10434335;28;20029;-60
2022/12/09 01:09:59;;;;;;;11.57;8.10;;;;;;;;;;10446926;28;20021;-63
2022/12/09 01:14:59;;;;;;;10.68;8.15;;;;;;;;;;10444064;28;20060;-60
2022/12/09 01:20:00;;;;;;;11.25;8.27;;;;;;;;;;10434127;28;20028;-61
2022/12/09 01:25:01;;;;;;;11.38;8.45;;;;;;;;;;10449741;28;20021;-58
2022/12/09 01:30:04;;;;;;;12.68;8.48;;;;;;;;;;10451582;28;20045;-61
2022/12/09 01:35:05;;;;;;;10.70;8.40;;;;;;;;;;10442986;28;20102;-58
2022/12/09 01:40:18;;;;;;;10.85;8.32;;;;;;;;;;10451814;28;20025;-59
2022/12/09 01:45:18;;;;;;;11.40;7.97;;;;;;;;;;10451828;28;20098;-60
2022/12/09 01:50:19;;;;;;;9.15;7.45;;;;;;;;;;10445329;28;20024;-59
2022/12/09 01:55:20;;;;;;;10.82;7.65;;;;;;;;;;10447930;28;20029;-65
2022/12/09 02:00:21;;;;;;;11.57;7.60;;;;;;;;;;10443676;28;20033;-60
2022/12/09 02:05:23;;;;;;;9.52;7.78;;;;;;;;;;10452501;28;20032;-64
2022/12/09 02:10:24;;;;;;;10.35;7.65;;;;;;;;;;10432679;28;20370;-61
2022/12/09 02:15:45;;;;;;;11.02;7.55;;;;;;;;;;10451898;28;20033;-61
2022/12/09 02:21:00;;;;;;;11.15;7.53;;;;;;;;;;10434273;28;20033;-59
2022/12/09 02:26:10;;;;;;;9.18;7.45;;;;;;;;;;10434270;28;20060;-61
2022/12/09 02:31:25;;;;;;;11.32;8.05;;;;;;;;;;10422213;28;20050;-63
2022/12/09 02:36:32;;;;;;;9.90;7.30;;;;;;;;;;10428478;28;20051;-62
2022/12/09 02:41:36;;;;;;;10.35;7.25;;;;;;;;;;10447880;28;20380;-62
2022/12/09 02:46:39;;;;;;;11.13;7.63;;;;;;;;;;10431791;28;20473;-65
2022/12/09 02:51:43;;;;;;;9.68;6.82;;;;;;;;;;10430329;28;20074;-64
2022/12/09 02:56:55;;;;;;;9.27;6.75;;;;;;;;;;10430334;28;20040;-63
2022/12/09 03:02:20;;;;;;;8.82;7.50;;;;;;;;;;10428656;28;20029;-61
2022/12/09 03:07:50;;;;;;;7.95;6.68;;;;;;;;;;10422494;28;20104;-59
2022/12/09 03:13:02;;;;;;;9.18;6.68;;;;;;;;;;10412533;28;20064;-60
2022/12/09 03:18:09;;;;;;;10.18;7.03;;;;;;;;;;10429650;28;20032;-56
2022/12/09 03:23:14;;;;;;;9.48;6.90;;;;;;;;;;10429702;28;20033;-58
2022/12/09 03:28:31;;;;;;;8.77;6.07;;;;;;;;;;10427215;28;20048;-58
2022/12/09 03:33:32;;;;;;;7.85;6.38;;;;;;;;;;10429576;28;20051;-58
2022/12/09 03:38:36;;;;;;;8.63;6.70;;;;;;;;;;10446131;28;20376;-58
2022/12/09 03:43:41;;;;;;;9.13;6.53;;;;;;;;;;10427001;28;20446;-59
2022/12/09 03:48:42;;;;;;;9.20;6.43;;;;;;;;;;10425771;28;20388;-59
2022/12/09 03:54:12;;;;;;;7.32;6.18;;;;;;;;;;10422343;28;20044;-59
2022/12/09 03:59:14;;;;;;;6.90;5.72;;;;;;;;;;10395488;28;20091;-59
2022/12/09 04:04:15;;;;;;;8.75;5.90;;;;;;;;;;10447463;28;20099;-59
2022/12/09 04:09:16;;;;;;;6.85;5.65;;;;;;;;;;10446482;28;20032;-58
2022/12/09 04:14:17;;;;;;;7.00;5.75;;;;;;;;;;10429061;28;20040;-59
2022/12/09 04:19:17;;;;;;;7.43;5.75;;;;;;;;;;10447556;28;20025;-62
2022/12/09 04:24:18;;;;;;;7.00;5.82;;;;;;;;;;10445952;28;20025;-63
2022/12/09 04:29:19;;;;;;;7.57;5.82;;;;;;;;;;10442409;28;20405;-60
2022/12/09 04:34:19;;;;;;;6.88;5.78;;;;;;;;;;10446843;28;20447;-61
2022/12/09 04:39:20;;;;;;;7.82;5.63;;;;;;;;;;10446980;28;20017;-63
2022/12/09 04:44:21;;;;;;;7.57;5.90;;;;;;;;;;10446290;28;20028;-64
2022/12/09 04:49:21;;;;;;;6.95;5.45;;;;;;;;;;10446693;28;20468;-62
2022/12/09 04:54:22;;;;;;;7.82;5.53;;;;;;;;;;10446001;28;20037;-59
2022/12/09 04:59:22;;;;;;;8.70;6.20;;;;;;;;;;10441947;28;20029;-59
2022/12/09 05:04:23;;;;;;;6.68;5.70;;;;;;;;;;10449965;28;20021;-62
2022/12/09 05:09:23;;;;;;;7.75;5.45;;;;;;;;;;10454358;28;20035;-60
2022/12/09 05:14:24;;;;;;;6.57;5.45;;;;;;;;;;10453769;28;20040;-59
2022/12/09 05:19:25;;;;;;;7.40;5.20;;;;;;;;;;10441694;28;20021;-59
2022/12/09 05:24:25;;;;;;;7.78;5.18;;;;;;;;;;10453313;28;20028;-63
2022/12/09 05:29:26;;;;;;;6.47;5.55;;;;;;;;;;10453702;28;20484;-60
2022/12/09 05:34:27;;;;;;;7.25;5.40;;;;;;;;;;10451407;28;20028;-61
2022/12/09 05:39:28;;;;;;;6.57;5.10;;;;;;;;;;10452708;28;20142;-62
2022/12/09 05:44:29;;;;;;;6.57;5.10;;;;;;;;;;10451612;28;20021;-64
2022/12/09 05:49:30;;;;;;;5.88;4.43;;;;;;;;;;10452414;28;20063;-64
2022/12/09 05:54:30;;;;;;;5.38;4.38;;;;;;;;;;10450911;28;20025;-64
2022/12/09 05:59:31;;;;;;;7.00;5.30;;;;;;;;;;10452166;28;20472;-63
2022/12/09 06:04:32;;;;;;;5.85;4.93;;;;;;;;;;10452625;28;20036;-61
2022/12/09 06:09:32;;;;;;;6.10;4.68;;;;;;;;;;10449637;28;20033;-63
2022/12/09 06:14:33;;;;;;;6.35;4.70;;;;;;;;;;10451835;28;20060;-61
2022/12/09 06:19:34;;;;;;;5.80;4.50;;;;;;;;;;10451582;28;20025;-60
2022/12/09 06:24:35;;;;;;;6.25;4.38;;;;;;;;;;10447795;28;20029;-65
2022/12/09 06:29:35;;;;;;;6.63;4.28;;;;;;;;;;10451372;28;20041;-65
2022/12/09 06:34:36;;;;;;;7.78;4.13;;;;;;;;;;10451532;28;20029;-59
2022/12/09 06:39:36;;;;;;;8.70;4.55;;;;;;;;;;10446092;28;20476;-60
2022/12/09 06:44:38;;;;;;;5.47;4.05;;;;;;;;;;10447806;28;20037;-62
2022/12/09 06:49:39;;;;;;;5.05;4.20;;;;;;;;;;10433422;28;20029;-60
2022/12/09 06:54:40;;;;;;;5.35;3.88;;;;;;;;;;10436929;28;20037;-61
2022/12/09 06:59:40;;;;;;;5.90;4.07;;;;;;;;;;10437914;28;20032;-60
2022/12/09 07:04:41;;;;;;;4.85;3.92;;;;;;;;;;10447395;28;20098;-65
2022/12/09 07:09:41;;;;;;;3.90;3.45;;;;;;;;;;10446745;28;20036;-64
2022/12/09 07:14:42;;;;;;;4.45;3.72;;;;;;;;;;10443952;28;20040;-62
2022/12/09 07:19:43;;;;;;;4.53;3.67;;;;;;;;;;10443997;28;20032;-60
2022/12/09 07:24:43;;;;;;;4.55;3.40;;;;;;;;;;10426848;28;20033;-61
2022/12/09 07:29:44;;;;;;;7.80;4.00;;;;;;;;;;10442260;28;20145;-65
2022/12/09 07:34:45;;;;;;;5.47;3.65;;;;;;;;;;10448683;28;20032;-63
2022/12/09 07:39:45;;;;;;;5.05;3.58;;;;;;;;;;10447793;28;20029;-64
2022/12/09 07:44:48;;;;;;;4.03;3.40;;;;;;;;;;10448896;28;20040;-61
2022/12/09 07:49:48;;;;;;;4.00;2.92;;;;;;;;;;10436482;28;20253;-60
2022/12/09 07:54:49;;;;;;;4.57;3.38;;;;;;;;;;10447521;28;20245;-60
2022/12/09 07:59:52;;;;;;;7.22;3.60;;;;;;;;;;10448306;28;20025;-62
2022/12/09 08:04:52;;;;;;;4.38;3.70;;;;;;;;;;10446852;28;20031;-61
2022/12/09 08:09:55;;;;;;;3.92;3.42;;;;;;;;;;10448487;28;20036;-65
2022/12/09 08:14:56;;;;;;;7.10;3.25;;;;;;;;;;10446749;28;20532;-62
2022/12/09 08:19:56;;;;;;;3.83;3.30;;;;;;;;;;10447669;28;20020;-61
2022/12/09 08:24:57;;;;;;;7.55;3.40;;;;;;;;;;10447451;28;20052;-64
2022/12/09 08:29:59;;;;;;;3.97;3.10;;;;;;;;;;10446600;28;20040;-61
2022/12/09 08:34:59;;;;;;;5.65;3.35;;;;;;;;;;10450324;28;20079;-63
2022/12/09 08:40:00;;;;;;;3.88;3.42;;;;;;;;;;10455507;28;20071;-63
2022/12/09 08:45:01;;;;;;;4.97;3.55;;;;;;;;;;10455859;28;20472;-61
2022/12/09 08:50:01;;;;;;;5.75;3.38;;;;;;;;;;10454756;28;20488;-62
2022/12/09 08:55:02;;;;;;;3.58;3.20;;;;;;;;;;10454857;28;20040;-59
2022/12/09 09:00:04;;;;;;;4.97;3.20;;;;;;;;;;10454813;28;20436;-61
2022/12/09 09:05:05;;;;;;;3.47;3.00;;;;;;;;;;10454289;28;20396;-62
2022/12/09 09:10:06;;;;;;;4.95;2.95;;;;;;;;;;10453957;28;20037;-60
2022/12/09 09:15:08;;;;;;;3.90;2.95;;;;;;;;;;10454306;28;20450;-62
2022/12/09 09:20:08;;;;;;;3.25;2.92;;;;;;;;;;10453601;28;20452;-61
2022/12/09 09:25:09;;;;;;;3.45;2.90;;;;;;;;;;10452967;28;20071;-60
2022/12/09 09:30:10;;;;;;;3.33;2.95;;;;;;;;;;10453179;28;20040;-64
2022/12/09 09:35:10;;;;;;;2.80;2.50;;;;;;;;;;10453280;28;20449;-62
2022/12/09 09:40:11;;;;;;;3.45;2.88;;;;;;;;;;10453094;28;20404;-63
2022/12/09 09:45:17;;;;;;;3.83;3.10;;;;;;;;;;10435147;28;20319;-64
2022/12/09 09:50:37;;;;;;;4.95;2.80;;;;;;;;;;10451848;28;20017;-66
2022/12/09 09:55:48;;;;;;;3.30;2.92;;;;;;;;;;10435501;28;20025;-64
2022/12/09 10:01:07;;;;;;;4.28;3.10;;;;;;;;;;10451572;28;20029;-61
2022/12/09 10:06:44;;;;;;;3.17;2.88;;;;;;;;;;10452441;28;20530;-63
2022/12/09 10:12:07;;;;;;;3.42;2.95;;;;;;;;;;10448238;28;20048;-65
2022/12/09 10:17:23;;;;;;;3.85;2.92;;;;;;;;;;10434628;28;20092;-65
2022/12/09 10:22:30;;;;;;;4.05;2.83;;;;;;;;;;10435125;28;20029;-61
2022/12/09 10:27:41;;;;;;;3.25;2.75;;;;;;;;;;10451764;28;20068;-65
2022/12/09 10:32:42;;;;;;;4.50;2.50;;;;;;;;;;10450805;28;20029;-62
2022/12/09 10:37:43;;;;;;;12.02;3.03;;;;;;;;;;10450679;28;20021;-61
2022/12/09 10:48:27;;;;;;;4.85;2.88;;;;;;;;;;10450911;28;20025;-61
2022/12/09 10:53:29;;;;;;;2.72;2.53;;;;;;;;;;10439579;28;20040;-60
2022/12/09 10:58:31;;;;;;;5.05;2.78;;;;;;;;;;10432269;28;20021;-63
2022/12/09 11:03:40;;;;;;;3.67;2.70;;;;;;;;;;10450249;28;20427;-64
2022/12/09 11:08:56;;;;;;;3.08;2.58;;;;;;;;;;10449942;28;20488;-59
2022/12/09 11:13:56;;;;;;;4.15;2.90;;;;;;;;;;10432272;28;20384;-61
2022/12/09 11:18:57;;;;;;;2.42;2.22;;;;;;;;;;10449333;28;20116;-61
2022/12/09 11:23:58;;;;;;;5.25;2.75;;;;;;;;;;10449736;28;20032;-61
2022/12/09 11:29:12;;;;;;;3.03;2.60;;;;;;;;;;10430825;28;20123;-60
2022/12/09 11:34:24;;;;;;;3.58;2.38;;;;;;;;;;10448485;28;20072;-64
2022/12/09 11:39:34;;;;;;;3.30;2.70;;;;;;;;;;10448876;28;20094;-61
2022/12/09 11:44:35;;;;;;;4.85;2.92;;;;;;;;;;10430737;28;20029;-61
2022/12/09 11:50:04;;;;;;;3.13;2.30;;;;;;;;;;10447422;28;20021;-63
2022/12/09 11:55:12;;;;;;;3.10;2.80;;;;;;;;;;10436342;28;20396;-60
2022/12/09 12:00:32;;;;;;;4.60;2.73;;;;;;;;;;10431164;28;20393;-61
2022/12/09 12:05:41;;;;;;;3.70;2.80;;;;;;;;;;10430881;28;20025;-61
2022/12/09 12:11:13;;;;;;;3.75;2.67;;;;;;;;;;10428892;28;20028;-64
2022/12/09 12:16:25;;;;;;;3.13;2.60;;;;;;;;;;10447605;28;20112;-60
2022/12/09 12:21:53;;;;;;;3.35;2.83;;;;;;;;;;10446712;28;20619;-61
2022/12/09 12:27:18;;;;;;;5.18;2.53;;;;;;;;;;10446154;28;20041;-62
2022/12/09 12:32:36;;;;;;;3.60;2.67;;;;;;;;;;10447159;28;20061;-61
2022/12/09 12:38:08;;;;;;;4.80;2.85;;;;;;;;;;10429555;28;20025;-59
2022/12/09 12:49:10;;;;;;;3.63;2.50;;;;;;;;;;10442907;28;20025;-62
2022/12/09 12:54:44;;;;;;;4.35;2.80;;;;;;;;;;10445670;28;20116;-66
2022/12/09 13:00:07;;;;;;;4.18;2.70;;;;;;;;;;10446869;28;20043;-63
2022/12/09 13:05:18;;;;;;;3.08;2.60;;;;;;;;;;10417557;28;20021;-61
2022/12/09 13:10:41;;;;;;;4.78;2.80;;;;;;;;;;10435042;28;20425;-61
2022/12/09 13:15:50;;;;;;;4.28;2.78;;;;;;;;;;10435405;28;20511;-60
2022/12/09 13:20:57;;;;;;;2.92;2.40;;;;;;;;;;10431750;28;20480;-65
2022/12/09 13:26:39;;;;;;;5.75;2.47;;;;;;;;;;10454400;28;20488;-61
2022/12/09 13:31:55;;;;;;;3.20;2.53;;;;;;;;;;10445721;28;20373;-62
2022/12/09 13:36:56;;;;;;;5.63;3.25;;;;;;;;;;10436645;28;20021;-64
2022/12/09 13:47:33;;;;;;;2.97;2.67;;;;;;;;;;10436715;28;20290;-60
2022/12/09 13:52:51;;;;;;;4.75;2.90;;;;;;;;;;10436216;28;20104;-63
2022/12/09 13:58:17;;;;;;;4.30;2.58;;;;;;;;;;10435047;28;20030;-65
2022/12/09 14:03:32;;;;;;;4.40;3.10;;;;;;;;;;10435143;28;20024;-65
2022/12/09 14:08:43;;;;;;;6.25;3.28;;;;;;;;;;10452306;28;20102;-61
2022/12/09 14:13:44;;;;;;;3.08;2.70;;;;;;;;;;10440208;28;20064;-60
2022/12/09 14:18:44;;;;;;;3.15;2.85;;;;;;;;;;10452197;28;20504;-61
2022/12/09 14:24:07;;;;;;;3.38;2.78;;;;;;;;;;10452008;28;20025;-64
2022/12/09 14:29:07;;;;;;;3.42;2.85;;;;;;;;;;10448378;28;20049;-61
2022/12/09 14:34:40;;;;;;;3.63;2.97;;;;;;;;;;10424283;28;20033;-60
2022/12/09 14:39:52;;;;;;;3.78;3.08;;;;;;;;;;10417551;28;20033;-62
2022/12/09 14:45:24;;;;;;;3.00;2.70;;;;;;;;;;10423038;28;20055;-63
2022/12/09 14:50:27;;;;;;;5.43;3.17;;;;;;;;;;10450341;28;20452;-63
2022/12/09 14:55:31;;;;;;;3.75;2.78;;;;;;;;;;10432225;28;20100;-61
2022/12/09 15:00:39;;;;;;;3.60;2.97;;;;;;;;;;10432720;28;20017;-62
2022/12/09 15:05:56;;;;;;;3.78;3.13;;;;;;;;;;10449116;28;20452;-63
2022/12/09 15:10:58;;;;;;;3.30;2.97;;;;;;;;;;10450136;28;20169;-61
2022/12/09 15:16:00;;;;;;;4.30;3.25;;;;;;;;;;10432491;28;20120;-60
2022/12/09 15:21:00;;;;;;;4.72;3.20;;;;;;;;;;10449925;28;20021;-65
2022/12/09 15:26:33;;;;;;;5.00;3.42;;;;;;;;;;10450823;28;20492;-60
2022/12/09 15:31:33;;;;;;;3.65;3.00;;;;;;;;;;10448133;28;20049;-59
2022/12/09 15:36:52;;;;;;;4.40;3.60;;;;;;;;;;10448432;28;20435;-62
2022/12/09 15:42:11;;;;;;;4.20;3.72;;;;;;;;;;10448007;28;20036;-63
2022/12/09 15:47:21;;;;;;;4.43;3.40;;;;;;;;;;10448135;28;20025;-61
2022/12/09 15:52:28;;;;;;;4.35;3.45;;;;;;;;;;10448437;28;20024;-61
2022/12/09 15:57:29;;;;;;;4.43;3.75;;;;;;;;;;10448530;28;20087;-62
2022/12/09 16:02:33;;;;;;;3.88;3.38;;;;;;;;;;10429603;28;20047;-66
2022/12/09 16:07:34;;;;;;;5.95;3.33;;;;;;;;;;10447057;28;20013;-61
2022/12/09 16:12:35;;;;;;;4.90;3.38;;;;;;;;;;10429088;28;20044;-60
2022/12/09 16:17:53;;;;;;;5.75;3.45;;;;;;;;;;10447264;28;20356;-63
2022/12/09 16:22:54;;;;;;;4.77;3.47;;;;;;;;;;10429102;28;20092;-62
2022/12/09 16:28:04;;;;;;;5.90;3.40;;;;;;;;;;10447101;28;20045;-62
2022/12/09 16:33:18;;;;;;;5.63;3.80;;;;;;;;;;10446661;28;20041;-63
2022/12/09 16:38:19;;;;;;;4.10;3.67;;;;;;;;;;10430456;28;20402;-59
2022/12/09 16:43:22;;;;;;;4.18;3.70;;;;;;;;;;10446991;28;20029;-60
2022/12/09 16:48:26;;;;;;;4.95;3.58;;;;;;;;;;10435013;28;20043;-60
2022/12/09 16:53:31;;;;;;;4.85;3.58;;;;;;;;;;10447539;28;20352;-60
2022/12/09 16:58:33;;;;;;;5.68;3.20;;;;;;;;;;10454722;28;20029;-60
2022/12/09 17:03:41;;;;;;;4.22;3.45;;;;;;;;;;10454902;28;20032;-59
2022/12/09 17:08:43;;;;;;;3.87;3.47;;;;;;;;;;10436635;28;20366;-66
2022/12/09 17:13:43;;;;;;;5.68;4.07;;;;;;;;;;10454258;28;20497;-64
2022/12/09 17:18:44;;;;;;;3.95;3.28;;;;;;;;;;10455370;28;20060;-61
2022/12/09 17:23:45;;;;;;;4.55;3.40;;;;;;;;;;10453576;28;20025;-62
2022/12/09 17:28:47;;;;;;;4.75;3.42;;;;;;;;;;10453999;28;20049;-64
2022/12/09 17:33:48;;;;;;;5.15;3.72;;;;;;;;;;10454233;28;20029;-61
2022/12/09 17:38:49;;;;;;;3.70;3.28;;;;;;;;;;10453498;28;20275;-62
2022/12/09 17:43:50;;;;;;;6.55;3.75;;;;;;;;;;10452512;28;20459;-59
2022/12/09 17:48:50;;;;;;;3.55;2.95;;;;;;;;;;10453494;28;20025;-64
2022/12/09 17:53:51;;;;;;;6.25;3.63;;;;;;;;;;10449608;28;20036;-64
2022/12/09 17:59:08;;;;;;;4.15;3.63;;;;;;;;;;10436384;28;20036;-61
2022/12/09 18:04:09;;;;;;;4.70;3.50;;;;;;;;;;10427085;28;20051;-62
2022/12/09 18:09:19;;;;;;;5.65;3.75;;;;;;;;;;10443254;28;20504;-61
2022/12/09 18:14:20;;;;;;;3.80;3.40;;;;;;;;;;10425591;28;20381;-59
2022/12/09 18:19:22;;;;;;;5.75;3.20;;;;;;;;;;10431035;28;20017;-63
2022/12/09 18:24:22;;;;;;;4.32;3.40;;;;;;;;;;10450739;28;20044;-62
2022/12/09 18:29:24;;;;;;;5.63;3.35;;;;;;;;;;10451963;28;20049;-61
2022/12/09 18:34:26;;;;;;;8.80;3.35;;;;;;;;;;10450090;28;20041;-64
2022/12/09 18:39:27;;;;;;;3.55;3.22;;;;;;;;;;10436757;28;20195;-63
2022/12/09 18:44:28;;;;;;;4.13;3.67;;;;;;;;;;10450113;28;20164;-64
2022/12/09 18:49:28;;;;;;;5.43;3.70;;;;;;;;;;10440703;28;20117;-64
2022/12/09 18:54:31;;;;;;;4.38;3.15;;;;;;;;;;10446362;28;20028;-64
2022/12/09 18:59:31;;;;;;;4.95;3.50;;;;;;;;;;10448132;28;20055;-59
2022/12/09 19:04:32;;;;;;;4.30;3.10;;;;;;;;;;10439940;28;20036;-60
2022/12/09 19:09:34;;;;;;;4.15;3.65;;;;;;;;;;10443157;28;20029;-60
2022/12/09 19:14:37;;;;;;;5.32;3.63;;;;;;;;;;10449171;28;20036;-60
2022/12/09 19:19:38;;;;;;;5.32;3.17;;;;;;;;;;10447745;28;20017;-62
2022/12/09 19:24:39;;;;;;;4.93;3.90;;;;;;;;;;10445225;28;20025;-60
2022/12/09 19:29:39;;;;;;;5.50;3.35;;;;;;;;;;10447644;28;20037;-60
2022/12/09 19:34:40;;;;;;;4.13;3.70;;;;;;;;;;10429440;28;20032;-63
2022/12/09 19:39:42;;;;;;;5.43;4.03;;;;;;;;;;10447745;28;20033;-59
2022/12/09 19:44:43;;;;;;;5.40;3.85;;;;;;;;;;10444775;28;20017;-62
2022/12/09 19:49:43;;;;;;;5.30;4.20;;;;;;;;;;10447646;28;20464;-62
2022/12/09 19:54:44;;;;;;;4.20;3.80;;;;;;;;;;10446339;28;20025;-63
2022/12/09 19:59:46;;;;;;;4.63;3.85;;;;;;;;;;10435979;28;20025;-59
2022/12/09 20:04:46;;;;;;;4.25;3.58;;;;;;;;;;10443769;28;20083;-59
2022/12/09 20:09:48;;;;;;;4.50;3.80;;;;;;;;;;10443224;28;20021;-59
2022/12/09 20:14:48;;;;;;;4.10;3.58;;;;;;;;;;10437857;28;20077;-62
2022/12/09 20:19:49;;;;;;;5.28;3.92;;;;;;;;;;10441261;28;20232;-62
2022/12/09 20:24:49;;;;;;;4.18;3.60;;;;;;;;;;10443250;28;20028;-62
2022/12/09 20:29:50;;;;;;;5.80;4.00;;;;;;;;;;10441728;28;20111;-62
2022/12/09 20:34:52;;;;;;;5.75;4.05;;;;;;;;;;10438566;28;20731;-64
2022/12/09 20:39:53;;;;;;;5.18;4.10;;;;;;;;;;10442971;28;20040;-62
2022/12/09 20:44:53;;;;;;;5.68;4.05;;;;;;;;;;10440501;28;20057;-62
2022/12/09 20:49:58;;;;;;;4.10;3.70;;;;;;;;;;10435217;28;20025;-62
2022/12/09 20:54:59;;;;;;;5.07;4.00;;;;;;;;;;10432991;28;20079;-62
2022/12/09 20:59:59;;;;;;;4.75;4.20;;;;;;;;;;10436331;28;20373;-62
2022/12/09 21:05:00;;;;;;;5.07;3.90;;;;;;;;;;10421757;28;20037;-62
2022/12/09 21:10:00;;;;;;;4.85;4.07;;;;;;;;;;10429961;28;20026;-61
2022/12/09 21:15:01;;;;;;;5.10;3.80;;;;;;;;;;10442610;28;20558;-62
2022/12/09 21:20:02;;;;;;;4.80;4.00;;;;;;;;;;10439554;28;20060;-60
2022/12/09 21:25:03;;;;;;;5.13;4.10;;;;;;;;;;10432661;28;20035;-62
2022/12/09 21:30:06;;;;;;;4.93;3.80;;;;;;;;;;10441428;28;20052;-60
2022/12/09 21:35:07;;;;;;;4.55;3.80;;;;;;;;;;10442402;28;20056;-63
2022/12/09 21:40:09;;;;;;;4.85;4.20;;;;;;;;;;10436452;28;20587;-59
2022/12/09 21:45:10;;;;;;;5.03;4.13;;;;;;;;;;10443735;28;20038;-62
2022/12/09 21:50:10;;;;;;;5.15;4.03;;;;;;;;;;10440803;28;20036;-63
2022/12/09 21:55:11;;;;;;;5.20;4.05;;;;;;;;;;10447381;28;20037;-62
2022/12/09 22:00:12;;;;;;;4.65;4.13;;;;;;;;;;10448065;28;20562;-64
2022/12/09 22:05:22;;;;;;;7.10;3.97;;;;;;;;;;10444671;28;20067;-62
2022/12/09 22:10:22;;;;;;;7.10;4.10;;;;;;;;;;10441397;28;20037;-61
2022/12/09 22:15:23;;;;;;;7.70;3.90;;;;;;;;;;10449806;28;20499;-66
2022/12/09 22:20:24;;;;;;;5.45;4.28;;;;;;;;;;10430146;28;20021;-62
2022/12/09 22:25:24;;;;;;;6.35;4.10;;;;;;;;;;10450686;28;20029;-63
2022/12/09 22:30:25;;;;;;;8.43;4.63;;;;;;;;;;10451882;28;20052;-62
2022/12/09 22:35:25;;;;;;;6.63;4.38;;;;;;;;;;10449632;28;20033;-65
2022/12/09 22:40:26;;;;;;;8.57;4.00;;;;;;;;;;10449070;28;20028;-64
2022/12/09 22:45:27;;;;;;;4.90;3.95;;;;;;;;;;10445597;28;20021;-66
2022/12/09 22:50:28;;;;;;;10.52;4.68;;;;;;;;;;10449227;28;20108;-66
2022/12/09 22:55:28;;;;;;;5.38;3.75;;;;;;;;;;10448393;28;20441;-66
2022/12/09 23:00:29;;;;;;;10.45;4.65;;;;;;;;;;10450303;28;20052;-66
2022/12/09 23:05:29;;;;;;;7.03;4.13;;;;;;;;;;10450497;28;20033;-67
2022/12/09 23:10:31;;;;;;;9.07;5.13;;;;;;;;;;10434690;28;20033;-58
2022/12/09 23:15:33;;;;;;;7.15;4.00;;;;;;;;;;10445615;28;20033;-62
2022/12/09 23:20:33;;;;;;;6.40;4.03;;;;;;;;;;10449334;28;20024;-61
2022/12/09 23:25:34;;;;;;;6.85;4.32;;;;;;;;;;10448779;28;20025;-63
2022/12/09 23:30:35;;;;;;;5.85;4.43;;;;;;;;;;10448236;28;20056;-60
2022/12/09 23:35:37;;;;;;;5.72;4.50;;;;;;;;;;10447740;28;20025;-62
2022/12/09 23:40:38;;;;;;;6.68;4.20;;;;;;;;;;10450046;28;20041;-63
2022/12/09 23:45:38;;;;;;;6.60;4.60;;;;;;;;;;10448948;28;20033;-63
2022/12/09 23:50:39;;;;;;;7.97;4.80;;;;;;;;;;10449085;28;20493;-62
2022/12/09 23:55:41;;;;;;;5.30;4.35;;;;;;;;;;10447673;28;20024;-63
